createdAt,value
2019-06-01T00:00:35.468Z,9.93
2019-06-01T00:02:59.961Z,12.10
2019-06-01T00:05:24.398Z,10.83
2019-06-01T00:10:29.044Z,10.50
2019-06-01T00:12:53.518Z,10.53
2019-06-01T00:17:54.615Z,11.17
2019-06-01T00:20:19.055Z,11.23
2019-06-01T00:22:43.515Z,10.07
2019-06-01T00:25:28.750Z,12.03
2019-06-01T00:30:29.817Z,10.57
2019-06-01T00:32:54.282Z,9.37
2019-06-01T00:35:18.873Z,10.43
2019-06-01T00:37:43.474Z,11.23
2019-06-01T00:43:13.427Z,9.07
2019-06-01T00:45:37.873Z,12.30
2019-06-01T00:48:02.496Z,12.07
2019-06-01T00:50:26.940Z,10.23
2019-06-01T00:52:51.477Z,12.13
2019-06-01T00:57:53.865Z,10.67
2019-06-01T01:00:43.838Z,8.83
2019-06-01T01:05:42.650Z,11.20
2019-06-01T01:10:43.202Z,10.73
2019-06-01T01:13:26.809Z,10.03
2019-06-01T01:18:27.141Z,11.53
2019-06-01T01:20:52.065Z,9.47
2019-06-01T01:23:23.628Z,9.93
2019-06-01T01:31:12.394Z,10.87
2019-06-01T01:33:32.041Z,14.30
2019-06-01T01:35:57.759Z,15.20
2019-06-01T01:38:44.310Z,11.67
2019-06-01T01:43:45.436Z,11.40
2019-06-01T01:46:09.873Z,11.40
2019-06-01T01:48:34.342Z,12.47
2019-06-01T01:50:58.776Z,12.47
2019-06-01T01:53:23.251Z,12.77
2019-06-01T01:55:47.696Z,10.50
2019-06-01T02:01:21.353Z,10.57
2019-06-01T02:03:34.956Z,11.73
2019-06-01T02:05:59.399Z,11.80
2019-06-01T02:08:23.840Z,12.37
2019-06-01T02:10:48.301Z,11.97
2019-06-01T02:13:12.806Z,12.43
2019-06-01T02:15:58.297Z,11.00
2019-06-01T02:18:22.846Z,12.43
2019-06-01T02:23:23.821Z,12.33
2019-06-01T02:25:48.292Z,13.83
2019-06-01T02:28:12.765Z,11.43
2019-06-01T02:33:13.864Z,11.20
2019-06-01T02:38:30.527Z,11.33
2019-06-01T02:40:56.910Z,10.73
2019-06-01T02:43:45.186Z,10.90
2019-06-01T02:46:09.663Z,11.73
2019-06-01T02:48:53.464Z,11.67
2019-06-01T02:54:13.495Z,10.33
2019-06-01T02:59:14.047Z,14.63
2019-06-01T03:01:38.857Z,11.83
2019-06-01T03:04:22.732Z,14.20
2019-06-01T03:07:08.826Z,11.20
2019-06-01T03:15:34.223Z,8.73
2019-06-01T03:21:18.705Z,7.77
2019-06-01T03:27:03.367Z,8.70
2019-06-01T03:32:36.704Z,9.40
2019-06-01T03:35:02.919Z,12.47
2019-06-01T03:37:50.752Z,13.20
2019-06-01T03:40:23.524Z,11.17
2019-06-01T03:42:57.066Z,12.17
2019-06-01T03:45:21.607Z,10.70
2019-06-01T03:47:46.125Z,13.27
2019-06-01T03:50:28.632Z,12.80
2019-06-01T03:52:53.089Z,11.40
2019-06-01T03:55:17.777Z,11.23
2019-06-01T03:57:42.236Z,12.40
2019-06-01T04:03:07.180Z,13.03
2019-06-01T04:05:38.182Z,11.87
2019-06-01T04:08:03.428Z,10.90
2019-06-01T04:10:53.165Z,12.67
2019-06-01T04:13:17.609Z,11.93
2019-06-01T04:15:58.358Z,12.43
2019-06-01T04:18:22.820Z,12.30
2019-06-01T04:21:04.233Z,13.57
2019-06-01T04:26:05.976Z,12.70
2019-06-01T04:28:53.066Z,13.73
2019-06-01T04:31:17.528Z,13.50
2019-06-01T04:33:42.070Z,15.00
2019-06-01T04:36:07.033Z,13.90
2019-06-01T04:38:31.492Z,14.03
2019-06-01T04:46:26.827Z,14.47
2019-06-01T04:51:27.405Z,13.70
2019-06-01T04:53:51.873Z,14.73
2019-06-01T04:56:34.639Z,14.37
2019-06-01T04:58:59.162Z,14.57
2019-06-01T05:01:23.648Z,15.30
2019-06-01T05:03:48.210Z,15.23
2019-06-01T05:06:13.432Z,15.70
2019-06-01T05:09:00.258Z,13.97
2019-06-01T05:11:24.732Z,14.90
2019-06-01T05:16:24.764Z,16.53
2019-06-01T05:18:49.249Z,15.70
2019-06-01T05:21:15.162Z,17.03
2019-06-01T05:23:45.244Z,15.70
2019-06-01T05:26:10.885Z,16.77
2019-06-01T05:28:57.408Z,17.03
2019-06-01T05:31:25.206Z,20.97
2019-06-01T05:34:11.946Z,17.50
2019-06-01T05:36:36.575Z,15.70
2019-06-01T05:39:01.024Z,16.70
2019-06-01T05:44:19.070Z,16.37
2019-06-01T05:46:43.819Z,16.40
2019-06-01T05:49:08.287Z,18.60
2019-06-01T05:51:32.887Z,15.70
2019-06-01T05:53:58.950Z,15.60
2019-06-01T05:58:59.482Z,19.53
2019-06-01T06:01:23.945Z,17.17
2019-06-01T06:06:40.957Z,17.43
2019-06-01T06:09:26.214Z,17.20
2019-06-01T06:12:07.192Z,18.20
2019-06-01T06:14:31.640Z,18.13
2019-06-01T06:16:56.170Z,19.03
2019-06-01T06:19:22.705Z,19.47
2019-06-01T06:22:08.966Z,17.40
2019-06-01T06:24:33.438Z,17.33
2019-06-01T06:26:57.891Z,17.57
2019-06-01T06:32:17.512Z,19.73
2019-06-01T06:34:41.987Z,17.07
2019-06-01T06:37:06.528Z,23.60
2019-06-01T06:39:31.016Z,19.53
2019-06-01T06:41:55.469Z,19.80
2019-06-01T06:44:20.603Z,19.93
2019-06-01T06:46:51.808Z,18.03
2019-06-01T06:49:17.077Z,15.17
2019-06-01T06:51:47.867Z,18.27
2019-06-01T06:54:14.581Z,20.20
2019-06-01T06:57:00.123Z,19.53
2019-06-01T06:59:40.983Z,16.43
2019-06-01T07:02:05.517Z,21.13
2019-06-01T07:04:30.001Z,18.17
2019-06-01T07:06:54.520Z,17.13
2019-06-01T07:09:19.951Z,18.83
2019-06-01T07:12:08.483Z,16.83
2019-06-01T07:14:32.971Z,19.87
2019-06-01T07:16:57.420Z,18.33
2019-06-01T07:19:21.920Z,19.10
2019-06-01T07:21:46.382Z,17.67
2019-06-01T07:24:10.841Z,23.20
2019-06-01T07:26:35.428Z,21.00
2019-06-01T07:31:36.266Z,19.83
2019-06-01T07:34:00.748Z,19.57
2019-06-01T07:36:26.586Z,15.63
2019-06-01T07:38:56.664Z,19.27
2019-06-01T07:41:21.118Z,20.97
2019-06-01T07:43:45.599Z,21.13
2019-06-01T07:46:10.062Z,19.70
2019-06-01T07:48:34.548Z,18.87
2019-06-01T07:50:59.000Z,14.63
2019-06-01T07:53:24.052Z,13.60
2019-06-01T07:55:55.749Z,14.53
2019-06-01T07:58:20.819Z,13.20
2019-06-01T08:00:52.070Z,14.87
2019-06-01T08:06:09.243Z,14.03
2019-06-01T08:11:32.176Z,12.23
2019-06-01T08:19:26.353Z,12.10
2019-06-01T08:24:43.599Z,14.03
2019-06-01T08:27:08.033Z,15.47
2019-06-01T08:29:32.882Z,11.90
2019-06-01T08:34:49.768Z,10.77
2019-06-01T08:37:31.432Z,11.83
2019-06-01T08:39:59.118Z,11.00
2019-06-01T08:42:47.490Z,14.10
2019-06-01T08:47:47.721Z,10.70
2019-06-01T08:53:11.809Z,12.20
2019-06-01T08:55:55.654Z,10.87
2019-06-01T08:58:20.095Z,12.77
2019-06-01T09:00:44.699Z,9.67
2019-06-01T09:03:09.143Z,12.00
2019-06-01T09:08:28.920Z,11.97
2019-06-01T09:10:53.515Z,9.23
2019-06-01T09:13:17.963Z,9.63
2019-06-01T09:15:42.506Z,10.17
2019-06-01T09:20:59.517Z,9.47
2019-06-01T09:23:23.978Z,8.07
2019-06-01T09:25:48.460Z,8.10
2019-06-01T09:28:12.973Z,8.27
2019-06-01T09:30:37.509Z,7.80
2019-06-01T09:35:52.594Z,10.53
2019-06-01T09:41:05.587Z,9.30
2019-06-01T09:43:31.095Z,8.43
2019-06-01T09:46:17.748Z,7.93
2019-06-01T09:48:42.267Z,8.80
2019-06-01T09:51:06.806Z,7.83
2019-06-01T09:53:32.616Z,9.20
2019-06-01T09:56:03.582Z,9.10
2019-06-01T09:58:28.220Z,6.87
2019-06-01T10:00:52.806Z,9.07
2019-06-01T10:03:17.327Z,6.47
2019-06-01T10:08:44.790Z,5.47
2019-06-01T10:16:20.703Z,6.23
2019-06-01T10:19:01.146Z,5.83
2019-06-01T10:24:18.250Z,8.37
2019-06-01T10:26:42.764Z,5.73
2019-06-01T10:31:43.244Z,5.50
2019-06-01T10:34:07.699Z,4.97
2019-06-01T10:36:32.158Z,5.80
2019-06-01T10:39:15.215Z,6.10
2019-06-01T10:44:38.913Z,6.10
2019-06-01T10:47:00.409Z,6.30
2019-06-01T10:49:24.853Z,4.00
2019-06-01T10:51:49.387Z,5.23
2019-06-01T10:54:13.819Z,5.50
2019-06-01T10:56:54.960Z,4.47
2019-06-01T10:59:19.428Z,5.10
2019-06-01T11:01:43.905Z,4.57
2019-06-01T11:04:08.509Z,5.53
2019-06-01T11:09:28.349Z,7.27
2019-06-01T11:14:28.733Z,5.23
2019-06-01T11:17:09.781Z,3.47
2019-06-01T11:19:35.259Z,4.10
2019-06-01T11:22:06.027Z,3.43
2019-06-01T11:27:06.619Z,5.07
2019-06-01T11:29:31.066Z,3.47
2019-06-01T11:32:11.618Z,3.87
2019-06-01T11:34:36.483Z,4.07
2019-06-01T11:37:26.105Z,3.83
2019-06-01T11:39:50.643Z,3.07
2019-06-01T11:42:15.090Z,3.13
2019-06-01T11:44:40.704Z,4.63
2019-06-01T11:47:27.201Z,4.63
2019-06-01T11:49:51.647Z,2.63
2019-06-01T11:52:16.120Z,4.00
2019-06-01T11:57:16.753Z,3.73
2019-06-01T12:02:17.621Z,3.10
2019-06-01T12:07:37.680Z,2.27
2019-06-01T12:10:02.291Z,4.53
2019-06-01T12:12:26.735Z,2.40
2019-06-01T12:14:51.221Z,5.97
2019-06-01T12:17:15.668Z,3.63
2019-06-01T12:19:40.770Z,2.57
2019-06-01T12:22:31.963Z,4.60
2019-06-01T12:27:49.351Z,2.50
2019-06-01T12:33:08.602Z,3.63
2019-06-01T12:35:49.637Z,3.30
2019-06-01T12:38:14.083Z,4.27
2019-06-01T12:40:39.135Z,3.17
2019-06-01T12:43:10.417Z,4.57
2019-06-01T12:45:34.887Z,2.13
2019-06-01T12:50:35.820Z,4.17
2019-06-01T12:53:00.260Z,4.13
2019-06-01T12:55:24.790Z,2.27
2019-06-01T12:57:49.421Z,3.07
2019-06-01T13:03:05.219Z,2.27
2019-06-01T13:05:43.670Z,1.90
2019-06-01T13:13:36.554Z,1.87
2019-06-01T13:16:01.036Z,2.15
2019-06-01T13:18:25.489Z,1.92
2019-06-01T13:20:49.965Z,2.60
2019-06-01T13:23:14.486Z,3.55
2019-06-01T13:25:38.943Z,3.00
2019-06-01T13:28:03.388Z,2.37
2019-06-01T13:30:27.942Z,4.57
2019-06-01T13:32:52.843Z,3.47
2019-06-01T13:35:42.258Z,3.17
2019-06-01T13:43:20.030Z,2.65
2019-06-01T13:48:36.609Z,3.60
2019-06-01T13:51:01.137Z,1.80
2019-06-01T13:53:25.667Z,2.05
2019-06-01T13:55:50.584Z,2.02
2019-06-01T14:01:14.943Z,1.80
2019-06-01T14:06:33.796Z,2.42
2019-06-01T14:08:58.339Z,1.87
2019-06-01T14:11:22.895Z,4.80
2019-06-01T14:16:41.350Z,2.50
2019-06-01T14:19:07.091Z,2.47
2019-06-01T14:21:37.289Z,2.72
2019-06-01T14:24:02.008Z,1.85
2019-06-01T14:26:26.496Z,2.00
2019-06-01T14:29:14.694Z,2.10
2019-06-01T14:31:57.119Z,2.90
2019-06-01T14:37:16.217Z,2.42
2019-06-01T14:45:11.521Z,2.50
2019-06-01T14:47:36.012Z,1.60
2019-06-01T14:50:00.445Z,4.95
2019-06-01T14:52:24.984Z,1.82
2019-06-01T14:54:49.673Z,1.98
2019-06-01T14:57:33.527Z,4.03
2019-06-01T14:59:58.251Z,4.08
2019-06-01T15:02:22.718Z,2.20
2019-06-01T15:04:48.297Z,2.62
2019-06-01T15:10:10.889Z,1.90
2019-06-01T15:12:35.415Z,2.60
2019-06-01T15:14:59.878Z,1.50
2019-06-01T15:17:24.412Z,2.90
2019-06-01T15:22:44.668Z,2.90
2019-06-01T15:25:09.446Z,2.85
2019-06-01T15:27:33.934Z,1.72
2019-06-01T15:29:59.003Z,3.12
2019-06-01T15:32:46.155Z,2.72
2019-06-01T15:35:31.392Z,3.42
2019-06-01T15:40:32.480Z,2.67
2019-06-01T15:42:57.347Z,3.15
2019-06-01T15:45:47.345Z,2.55
2019-06-01T15:48:11.808Z,3.50
2019-06-01T15:50:36.268Z,1.85
2019-06-01T15:53:01.372Z,2.52
2019-06-01T15:55:52.138Z,3.23
2019-06-01T15:58:16.787Z,1.50
2019-06-01T16:00:41.311Z,2.87
2019-06-01T16:03:05.937Z,2.92
2019-06-01T16:05:30.389Z,1.80
2019-06-01T16:07:55.175Z,1.98
2019-06-01T16:15:31.850Z,6.40
2019-06-01T16:17:56.342Z,1.57
2019-06-01T16:20:27.147Z,2.02
2019-06-01T16:22:51.594Z,1.92
2019-06-01T16:25:38.959Z,2.37
2019-06-01T16:30:24.514Z,3.47
2019-06-01T16:32:48.940Z,2.47
2019-06-01T16:37:53.063Z,2.20
2019-06-01T16:43:17.799Z,3.33
2019-06-01T16:45:42.339Z,2.17
2019-06-01T16:48:06.796Z,1.82
2019-06-01T16:50:31.408Z,1.80
2019-06-01T16:52:55.989Z,2.10
2019-06-01T16:55:20.456Z,2.40
2019-06-01T16:57:44.969Z,2.23
2019-06-01T17:00:30.210Z,2.30
2019-06-01T17:02:54.795Z,1.87
2019-06-01T17:05:19.362Z,2.93
2019-06-01T17:07:43.921Z,3.63
2019-06-01T17:13:08.940Z,6.00
2019-06-01T17:18:15.456Z,4.00
2019-06-01T17:20:59.305Z,3.08
2019-06-01T17:23:27.287Z,2.50
2019-06-01T17:25:55.949Z,6.28
2019-06-01T17:28:20.464Z,3.22
2019-06-01T17:31:02.297Z,6.25
2019-06-01T17:33:26.893Z,4.83
2019-06-01T17:35:51.369Z,2.62
2019-06-01T17:38:15.953Z,4.87
2019-06-01T17:40:43.155Z,3.87
2019-06-01T17:43:28.707Z,4.00
2019-06-01T17:45:53.249Z,3.00
2019-06-01T17:48:39.551Z,3.10
2019-06-01T17:54:08.339Z,4.47
2019-06-01T17:56:32.929Z,2.67
2019-06-01T17:58:57.458Z,3.00
2019-06-01T18:01:42.123Z,2.20
2019-06-01T18:07:09.989Z,2.55
2019-06-01T18:09:34.637Z,5.43
2019-06-01T18:11:59.113Z,3.30
2019-06-01T18:14:23.629Z,4.28
2019-06-01T18:16:48.247Z,3.50
2019-06-01T18:19:12.834Z,3.70
2019-06-01T18:21:37.358Z,2.95
2019-06-01T18:24:03.388Z,4.83
2019-06-01T18:26:49.839Z,3.50
2019-06-01T18:29:14.417Z,4.90
2019-06-01T18:31:38.970Z,4.20
2019-06-01T18:34:03.550Z,3.60
2019-06-01T18:36:28.083Z,3.70
2019-06-01T18:38:52.613Z,2.90
2019-06-01T18:41:20.003Z,2.93
2019-06-01T18:44:07.773Z,4.60
2019-06-01T18:46:32.279Z,4.37
2019-06-01T18:48:56.744Z,3.50
2019-06-01T18:51:21.225Z,3.23
2019-06-01T18:53:45.679Z,3.13
2019-06-01T18:56:10.263Z,3.43
2019-06-01T18:58:51.281Z,3.03
2019-06-01T19:01:20.606Z,4.43
2019-06-01T19:03:47.442Z,3.97
2019-06-01T19:06:12.010Z,4.87
2019-06-01T19:08:36.518Z,6.17
2019-06-01T19:11:01.073Z,2.63
2019-06-01T19:13:25.575Z,3.10
2019-06-01T19:15:50.049Z,2.87
2019-06-01T19:18:14.705Z,3.03
2019-06-01T19:21:02.571Z,4.80
2019-06-01T19:23:47.822Z,2.60
2019-06-01T19:26:14.869Z,3.90
2019-06-01T19:29:00.224Z,3.83
2019-06-01T19:31:24.691Z,3.27
2019-06-01T19:34:06.873Z,3.27
2019-06-01T19:39:50.871Z,3.13
2019-06-01T19:42:15.631Z,6.33
2019-06-01T19:44:40.167Z,5.63
2019-06-01T19:47:04.703Z,3.23
2019-06-01T19:49:29.144Z,2.50
2019-06-01T19:51:53.601Z,3.63
2019-06-01T19:54:19.027Z,3.97
2019-06-01T19:56:49.728Z,7.07
2019-06-01T19:59:14.239Z,5.00
2019-06-01T20:01:54.932Z,4.83
2019-06-01T20:04:19.366Z,4.80
2019-06-01T20:07:01.797Z,7.00
2019-06-01T20:09:26.245Z,6.27
2019-06-01T20:12:01.507Z,4.03
2019-06-01T20:14:22.588Z,3.37
2019-06-01T20:17:12.108Z,4.23
2019-06-01T20:19:36.605Z,5.30
2019-06-01T20:22:01.124Z,7.53
2019-06-01T20:24:25.628Z,6.17
2019-06-01T20:26:50.082Z,5.57
2019-06-01T20:29:15.579Z,7.47
2019-06-01T20:32:02.876Z,5.03
2019-06-01T20:34:27.340Z,6.63
2019-06-01T20:36:51.788Z,7.90
2019-06-01T20:39:16.296Z,7.60
2019-06-01T20:41:40.672Z,6.57
2019-06-01T20:44:25.940Z,5.93
2019-06-01T20:46:50.389Z,7.30
2019-06-01T20:49:31.102Z,6.83
2019-06-01T20:54:48.431Z,5.97
2019-06-01T21:00:07.641Z,5.93
2019-06-01T21:02:32.264Z,6.70
2019-06-01T21:04:56.802Z,7.80
2019-06-01T21:07:21.965Z,5.70
2019-06-01T21:09:53.084Z,5.47
2019-06-01T21:12:18.455Z,6.40
2019-06-01T21:15:07.012Z,4.93
2019-06-01T21:20:29.983Z,6.70
2019-06-01T21:22:54.109Z,8.13
2019-06-01T21:27:54.588Z,11.93
2019-06-01T21:33:11.821Z,7.87
2019-06-01T21:35:36.327Z,7.43
2019-06-01T21:38:00.877Z,9.33
2019-06-01T21:40:25.730Z,8.73
2019-06-01T21:43:06.793Z,6.50
2019-06-01T21:45:28.117Z,6.20
2019-06-01T21:47:52.647Z,9.00
2019-06-01T21:50:18.184Z,8.47
2019-06-01T21:53:04.837Z,6.83
2019-06-01T21:58:06.006Z,6.13
2019-06-01T22:00:51.337Z,8.63
2019-06-01T22:03:16.816Z,6.67
2019-06-01T22:06:06.456Z,6.40
2019-06-01T22:08:30.899Z,6.80
2019-06-01T22:10:55.463Z,5.90
2019-06-01T22:15:55.841Z,7.10
2019-06-01T22:18:21.392Z,6.30
2019-06-01T22:20:52.187Z,6.63
2019-06-01T22:23:17.950Z,5.40
2019-06-01T22:28:24.522Z,6.93
2019-06-01T22:30:55.409Z,8.33
2019-06-01T22:33:21.449Z,6.67
2019-06-01T22:36:07.987Z,6.87
2019-06-01T22:41:08.630Z,7.27
2019-06-01T22:46:08.854Z,6.70
2019-06-01T22:51:09.559Z,10.00
2019-06-01T22:56:29.441Z,7.30
2019-06-01T22:58:53.934Z,7.27
2019-06-01T23:03:54.885Z,6.90
2019-06-01T23:06:19.441Z,6.23
2019-06-01T23:08:44.169Z,7.73
2019-06-01T23:14:03.820Z,7.57
2019-06-01T23:16:28.302Z,6.40
2019-06-01T23:18:52.818Z,5.97
2019-06-01T23:26:30.334Z,6.20
2019-06-01T23:31:32.327Z,6.87
2019-06-01T23:34:22.335Z,7.60
2019-06-01T23:39:22.723Z,6.97
2019-06-01T23:41:54.475Z,8.63
2019-06-01T23:44:35.293Z,6.70
2019-06-01T23:49:52.490Z,8.00
2019-06-01T23:52:17.046Z,8.13
2019-06-01T23:54:41.495Z,6.40
2019-06-01T23:57:06.045Z,9.70
